Flight Track Log - Related Links

Times and Time Zones

All times are in EDT time to prevent confusion due to time zone crossing. See the GJS3706 flight status page for this flight to view local times or setup timezone preferences in your user account.

Time Position Orientation Groundspeed Altitude Reporting Facility
EDT Latitude Longitude Course Direction KTS MPH feet Rate Location/Type
Fri 08:12:08 AM 43.6875 -70.2092 255° West 184 212 4,500  Level Boston Center
Fri 08:13:08 AM 43.7444 -70.2444 336° Northwest 189 217 6,200 2,100 Climbing Boston Center
Fri 08:14:08 AM 43.7653 -70.3644 284° West 220 253 8,700 2,200 Climbing Boston Center
Fri 08:15:08 AM 43.7589 -70.4711 265° West 287 330 10,600 2,150 Climbing Boston Center
Fri 08:16:00 AM 43.7093 -70.8363 243° Southwest  Level FlightAware Approximate
Fri 08:16:08 AM 43.7467 -70.6122 263° West 326 375 13,000  Level Boston Center
Fri 08:17:00 AM 43.6640 -70.9631 255° West  Level FlightAware Approximate
Fri 08:17:08 AM 43.7381 -70.7331 264° West 342 394 14,500  Level Boston Center
Fri 08:18:08 AM 43.7258 -70.8886 264° West 366 421 16,400 1,800 Climbing Boston Center
Fri 08:19:08 AM 43.7150 -71.0211 264° West 386 444 18,100 1,350 Climbing Boston Center
Fri 08:20:08 AM 43.7003 -71.1853 263° West 391 450 19,100 1,200 Climbing Boston Center
Fri 08:21:08 AM 43.6872 -71.3375 263° West 397 457 20,500 1,300 Climbing Boston Center
Fri 08:22:08 AM 43.6719 -71.4986 263° West 414 476 21,700 1,250 Climbing Boston Center
Fri 08:23:08 AM 43.6586 -71.6653 264° West 440 506 23,000 1,350 Climbing Boston Center
Fri 08:24:08 AM 43.6431 -71.8347 263° West 446 513 24,400 1,350 Climbing Boston Center
Fri 08:25:08 AM 43.6353 -71.9753 266° West 436 502 25,700 1,200 Climbing Boston Center
Fri 08:26:08 AM 43.6211 -72.1419 263° West 436 502 26,800 1,150 Climbing Boston Center
Fri 08:27:08 AM 43.5967 -72.3311 260° West 451 519 28,000 1,100 Climbing Boston Center
Fri 08:28:08 AM 43.5800 -72.5031 262° West 456 525 29,000 1,000 Climbing Boston Center
Fri 08:29:08 AM 43.5631 -72.6692 262° West 456 525 30,000 1,000 Climbing Boston Center
Fri 08:30:08 AM 43.5458 -72.8439 262° West 451 519 31,000 1,000 Climbing Boston Center
Fri 08:31:08 AM 43.5306 -73.0128 263° West 451 519 32,000 1,000 Climbing Boston Center
Fri 08:32:08 AM 43.5131 -73.1758 262° West 446 513 33,000 1,000 Climbing Boston Center
Fri 08:33:08 AM 43.4972 -73.3389 262° West 446 513 34,000 900 Climbing Boston Center
Fri 08:34:08 AM 43.4792 -73.5017 261° West 441 507 34,800 650 Climbing Boston Center
Fri 08:35:08 AM 43.4608 -73.6644 261° West 441 507 35,300 500 Climbing Boston Center
Fri 08:36:08 AM 43.4444 -73.8300 262° West 441 507 35,800 350 Climbing Boston Center
Fri 08:37:08 AM 43.4256 -73.9925 261° West 441 507 36,000 100 Climbing Boston Center
Fri 08:38:08 AM 43.4086 -74.1578 262° West 441 507 36,000  Level Boston Center
Fri 08:39:08 AM 43.3872 -74.3256 260° West 446 513 36,000 -50 Level Boston Center
Fri 08:40:08 AM 43.3697 -74.4908 262° West 446 513 35,900  Descending Boston Center
Fri 08:41:08 AM 43.3522 -74.6558 262° West 446 513 36,000 50 Climbing Boston Center
Fri 08:42:08 AM 43.3322 -74.8178 260° West 446 513 36,000  Level Boston Center
Fri 08:43:20 AM 43.3122 -74.9769 260° West 446 513 36,000  Level Boston Center
Fri 08:44:20 AM 43.3014 -75.1761 266° West 440 506 36,000  Level Boston Center
Fri 08:45:20 AM 43.3025 -75.2961 271° West 445 512 36,000  Level Boston Center
Fri 08:46:20 AM 43.2972 -75.4983 268° West 445 512 36,000  Level Boston Center
Fri 08:47:20 AM 43.2950 -75.6608 269° West 439 505 36,000  Level Boston Center
Fri 08:48:20 AM 43.2900 -75.8292 268° West 439 505 36,000  Level Boston Center
Fri 08:50:00 AM 43.2831 -76.1225 268° West 453 521 36,000  Level Cleveland Center
Fri 08:51:00 AM 43.2789 -76.2883 268° West 453 521 36,000  Level Cleveland Center
Fri 08:52:00 AM 43.2722 -76.4514 267° West 443 510 36,000  Level Cleveland Center
Fri 08:53:00 AM 43.2697 -76.6142 269° West 438 504 36,000  Level Cleveland Center
Fri 08:54:00 AM 43.2647 -76.7797 268° West 438 504 36,000  Level Cleveland Center
Fri 08:55:00 AM 43.2594 -76.9425 268° West 443 510 36,000  Level Cleveland Center
Fri 08:56:00 AM 43.2519 -77.1056 266° West 443 510 36,000  Level Cleveland Center
Fri 08:57:00 AM 43.2464 -77.2711 267° West 438 504 36,000  Level Cleveland Center
Fri 08:58:00 AM 43.2406 -77.4342 267° West 438 504 36,000  Level Cleveland Center
Fri 08:59:00 AM 43.2325 -77.6028 266° West 445 512 36,000  Level Cleveland Center
Fri 09:00:00 AM 43.2261 -77.7653 267° West 445 512 36,000  Level Cleveland Center
Fri 09:01:00 AM 43.2197 -77.9281 267° West 440 506 36,000  Level Cleveland Center
Fri 09:02:00 AM 43.2128 -78.0936 267° West 440 506 36,000  Level Cleveland Center
Fri 09:03:00 AM 43.2081 -78.2561 268° West 440 506 36,000  Level Cleveland Center
Fri 09:04:00 AM 43.1986 -78.4161 265° West 440 506 36,000  Level Cleveland Center
Fri 09:05:00 AM 43.1911 -78.5786 266° West 440 506 36,000  Level Cleveland Center
Fri 09:06:00 AM 43.1833 -78.7411 266° West 440 506 36,000  Level Cleveland Center
Fri 09:07:00 AM 43.1753 -78.9036 266° West 440 506 36,000  Level Cleveland Center
Fri 09:07:23 AM 43.1667 -78.9500 256° West 430 495 36,000  Level Toronto Center
Fri 09:08:23 AM 43.1500 -79.1000 261° West 430 495 36,000  Level Toronto Center
Fri 09:09:23 AM 43.1500 -79.2833 270° West 430 495 36,000  Level Toronto Center
Fri 09:10:23 AM 43.1333 -79.4500 262° West 440 506 36,000  Level Toronto Center
Fri 09:11:23 AM 43.1333 -79.6167 270° West 440 506 36,000  Level Toronto Center
Fri 09:12:23 AM 43.1167 -79.7667 261° West 440 506 36,000  Level Toronto Center
Fri 09:13:23 AM 43.1000 -79.9333 262° West 440 506 36,000  Level Toronto Center
Fri 09:14:23 AM 43.1000 -80.1167 270° West 440 506 36,000  Level Toronto Center
Fri 09:15:23 AM 43.0833 -80.3000 263° West 440 506 36,000  Level Toronto Center
Fri 09:16:23 AM 43.0833 -80.4500 270° West 440 506 36,000  Level Toronto Center
Fri 09:17:23 AM 43.0667 -80.6167 262° West 440 506 36,000  Level Toronto Center
Fri 09:18:23 AM 43.0500 -80.7667 261° West 440 506 36,000  Level Toronto Center
Fri 09:19:23 AM 43.0333 -80.9333 262° West 440 506 36,000  Level Toronto Center
Fri 09:20:23 AM 43.0167 -81.1167 263° West 440 506 36,000  Level Toronto Center
Fri 09:21:23 AM 43.0167 -81.2667 270° West 440 506 36,000  Level Toronto Center
Fri 09:22:23 AM 43.0167 -81.4333 270° West 440 506 36,000  Level Toronto Center
Fri 09:23:23 AM 43.0167 -81.6167 270° West 440 506 36,000  Level Toronto Center
Fri 09:24:23 AM 43.0167 -81.7833 270° West 440 506 36,000  Level Toronto Center
Fri 09:25:23 AM 43.0000 -81.9333 261° West 440 506 36,000  Level Toronto Center
Fri 09:26:23 AM 43.0000 -82.1000 270° West 440 506 36,000  Level Toronto Center
Fri 09:27:23 AM 43.0000 -82.2833 270° West 440 506 36,000  Level Toronto Center
Fri 09:28:23 AM 43.0000 -82.4333 270° West 440 506 36,000  Level Toronto Center
Fri 09:29:23 AM 43.0000 -82.6167 270° West 440 506 36,000  Level Toronto Center
Fri 09:29:48 AM 43.0017 -82.6839 272° West 442 509 36,000  Level Cleveland Center
Fri 09:30:48 AM 42.9964 -82.8542 268° West 442 509 36,000  Level Cleveland Center
Fri 09:31:48 AM 42.9931 -83.0186 268° West 437 503 36,000  Level Cleveland Center
Fri 09:32:48 AM 42.9872 -83.1831 267° West 437 503 36,000  Level Cleveland Center
Fri 09:33:48 AM 42.9814 -83.3503 267° West 437 503 36,000  Level Cleveland Center
Fri 09:34:48 AM 42.9750 -83.5203 267° West 443 510 36,000  Level Cleveland Center
Fri 09:35:48 AM 42.9708 -83.6847 268° West 443 510 36,000  Level Cleveland Center
Fri 09:36:48 AM 42.9642 -83.8517 267° West 438 504 36,000  Level Cleveland Center
Fri 09:37:48 AM 42.9572 -84.0189 267° West 443 510 36,000  Level Cleveland Center
Fri 09:38:48 AM 42.9519 -84.1858 268° West 438 504 36,000 -50 Level Cleveland Center
Fri 09:39:48 AM 42.9481 -84.3161 268° West 438 504 35,900 -800 Descending Cleveland Center
Fri 09:40:48 AM 42.9461 -84.4978 269° West 438 504 34,400 -1,361 Descending Cleveland Center
Fri 09:41:47 AM 42.9411 -84.6514 268° West 438 504 33,200 -1,091 Descending Chicago Center
Fri 09:42:49 AM 42.9203 -84.8150 260° West 442 509 32,200 -581 Descending Chicago Center
Fri 09:43:51 AM 42.8819 -85.0103 255° West 443 510 32,000 -439 Descending Chicago Center
Fri 09:44:52 AM 42.8508 -85.1706 255° West 439 505 31,300 -1,317 Descending Chicago Center
Fri 09:45:54 AM 42.8197 -85.3333 255° West 442 509 29,300 -1,935 Descending Chicago Center
Fri 09:46:56 AM 42.7869 -85.4933 254° West 438 504 27,300 -1,984 Descending Chicago Center
Fri 09:47:58 AM 42.7589 -85.6497 256° West 429 494 25,200 -1,984 Descending Chicago Center
Fri 09:49:00 AM 42.7317 -85.8008 256° West 415 478 23,200 -1,452 Descending Chicago Center
Fri 09:50:02 AM 42.7053 -85.9450 256° West 398 458 22,200 -585 Descending Chicago Center
Fri 09:51:03 AM 42.6794 -86.0886 256° West 391 450 22,000 -98 Descending Chicago Center
Fri 09:52:05 AM 42.6472 -86.2617 256° West 391 450 22,000  Level Chicago Center
Fri 09:53:07 AM 42.6194 -86.4039 255° West 389 448 22,000 -242 Level Chicago Center
Fri 09:54:09 AM 42.5925 -86.5475 256° West 392 451 21,500 -1,500 Descending Chicago Center
Fri 09:55:11 AM 42.5672 -86.6983 257° West 389 448 18,900 -2,371 Descending Chicago Center
Fri 09:56:13 AM 42.5356 -86.8286 252° West 374 430 16,600 -2,244 Descending Chicago Center
Fri 09:57:14 AM 42.5019 -86.9489 249° West 364 419 14,300 -2,098 Descending Chicago Center
Fri 09:58:16 AM 42.4644 -87.0722 248° West 357 411 12,300 -1,887 Descending Chicago Center
Fri 09:59:18 AM 42.4253 -87.2181 250° West 348 400 10,400 -1,113 Descending Chicago Center
Fri 10:00:20 AM 42.3919 -87.3375 249° West 342 394 10,000 -194 Descending Chicago Center
Fri 10:01:22 AM 42.3594 -87.4586 250° West 338 389 10,000  Level Chicago Center
Fri 10:02:24 AM 42.3161 -87.5669 242° Southwest 343 395 10,000 -435 Level Chicago Center
Fri 10:03:26 AM 42.2531 -87.6261 215° Southwest 283 326 9,100 -1,171 Descending Chicago Center
Fri 10:04:27 AM 42.1939 -87.6869 217° Southwest 271 312 7,600 -1,024 Descending Chicago Center
Fri 10:05:29 AM 42.1358 -87.7469 217° Southwest 266 306 7,000 -290 Descending Chicago Center
Fri 10:06:31 AM 42.1000 -87.8500 245° Southwest 273 314 7,000  Level Chicago TRACON
Fri 10:07:25 AM 42.1000 -87.9333 270° West 242 278 7,000  Level Chicago TRACON
Fri 10:08:31 AM 42.1000 -88.0167 270° West 196 226 7,000 -619 Level Chicago TRACON
Fri 10:09:31 AM 42.1000 -88.0833 270° West 200 230 5,700 -1,500 Descending Chicago TRACON
Fri 10:10:31 AM 42.0833 -88.1667 255° West 201 231 4,000 -785 Descending Chicago TRACON
Fri 10:11:41 AM 42.0903 -88.2503 276° West 200 230 4,000  Level Chicago Center
Fri 10:12:43 AM 42.0900 -88.3189 270° West 190 219 4,000  Level Chicago Center
Fri 10:13:45 AM 42.0903 -88.3894 270° West 191 220 4,000  Level Chicago Center
Fri 10:14:47 AM 42.0600 -88.4175 215° Southwest 180 207 4,000  Level Chicago Center
Fri 10:15:49 AM 42.0164 -88.4122 175° South 166 191 4,000  Level Chicago Center
Fri 10:16:51 AM 41.9836 -88.3725 138° Southeast 158 182 4,000  Level Chicago Center
Fri 10:17:53 AM 41.9833 -88.3100 90° East 163 188 4,000  Level Chicago Center
Fri 10:18:55 AM 41.9825 -88.2469 91° East 168 193 4,000  Level Chicago Center
Fri 10:19:57 AM 41.9828 -88.1825 90° East 170 196 4,000 -97 Level Chicago Center
Fri 10:20:59 AM 41.9833 -88.1183 89° East 171 197 3,800 -607 Descending Chicago Center
Fri 10:21:26 AM 41.9833 -88.0833 90° East 176 203 3,100 -1,103 Descending Chicago TRACON
Fri 10:22:26 AM 41.9833 -88.0167 90° East 161 185 2,200 -850 Descending Chicago TRACON
Fri 10:23:26 AM 41.9833 -87.9667 90° East 132 152 1,400 -800 Descending Chicago TRACON

Login

Don't have an account? Register now (free) for customized features, flight alerts, and more!